Time;durP1;ratioP1;P1;durP2;ratioP2;P2;SDS_P1;SDS_P2;PMS_P1;PMS_P2;Temp;Humidity;BMP_temperature;BMP_pressure;BME280_temperature;BME280_humidity;BME280_pressure;Samples;Min_cycle;Max_cycle;Signal;HPM_P1;HPM_P2
2023/01/12 00:01:20;;;;;;;2.63;1.00;;;;;;;7.40;85.99;100046.78;5052805;28;20213;-78
2023/01/12 00:03:47;;;;;;;5.20;1.40;;;;;;;7.48;86.63;100050.16;5053184;28;20205;-78
2023/01/12 00:06:14;;;;;;;3.13;1.03;;;;;;;7.31;86.27;100065.06;5053267;28;20225;-78
2023/01/12 00:08:40;;;;;;;6.07;1.97;;;;;;;7.31;87.07;100040.00;5052846;28;20207;-77
2023/01/12 00:11:07;;;;;;;5.07;1.63;;;;;;;7.42;86.12;100032.06;5051807;28;20225;-77
2023/01/12 00:13:34;;;;;;;3.60;1.10;;;;;;;7.53;86.66;100035.38;5052461;28;20209;-78
2023/01/12 00:18:47;;;;;;;3.27;0.93;;;;;;;7.54;84.77;100076.03;5047777;28;20275;-77
2023/01/12 00:21:14;;;;;;;7.87;2.27;;;;;;;7.52;85.21;100082.13;5042925;28;20248;-77
2023/01/12 00:23:42;;;;;;;4.60;1.50;;;;;;;7.61;85.38;100073.38;5051754;28;20625;-77
2023/01/12 00:26:08;;;;;;;5.37;1.53;;;;;;;7.52;86.03;100072.59;5051663;28;20228;-77
2023/01/12 00:28:36;;;;;;;5.03;1.37;;;;;;;7.47;85.20;100082.22;5052098;28;20638;-79
2023/01/12 00:31:07;;;;;;;4.80;1.20;;;;;;;7.46;85.01;100103.00;5050401;28;20642;-77
2023/01/12 00:33:34;;;;;;;5.67;1.47;;;;;;;7.61;85.77;100087.22;5032089;28;20243;-77
2023/01/12 00:36:02;;;;;;;4.10;1.20;;;;;;;7.54;85.03;100094.22;5032061;28;20238;-77
2023/01/12 00:38:29;;;;;;;3.73;1.10;;;;;;;7.58;86.22;100112.38;5032391;28;20208;-77
2023/01/12 00:40:56;;;;;;;3.23;0.80;;;;;;;7.63;86.48;100061.22;5032112;28;20206;-78
2023/01/12 00:46:05;;;;;;;3.03;0.83;;;;;;;7.53;88.27;100053.56;5032063;28;20222;-78
2023/01/12 00:48:32;;;;;;;6.20;1.23;;;;;;;7.50;88.02;100021.56;5032218;28;20267;-77
2023/01/12 00:51:02;;;;;;;3.60;1.30;;;;;;;7.54;88.55;100016.31;5042070;28;20274;-77
2023/01/12 00:53:28;;;;;;;4.70;1.10;;;;;;;7.58;88.74;99998.94;5051155;28;20266;-76
2023/01/12 00:56:00;;;;;;;4.87;1.40;;;;;;;7.58;89.11;99991.16;5051432;28;20252;-77
2023/01/12 00:58:27;;;;;;;5.13;1.10;;;;;;;7.47;89.64;99985.25;5051430;28;20208;-78
2023/01/12 01:00:53;;;;;;;5.10;1.47;;;;;;;7.52;89.47;100002.47;5052058;28;20282;-78
2023/01/12 01:03:21;;;;;;;2.63;1.20;;;;;;;7.55;88.82;99992.06;5051909;28;20201;-78
2023/01/12 01:05:47;;;;;;;3.70;1.00;;;;;;;7.63;89.87;99991.09;5050457;28;20221;-78
2023/01/12 01:08:14;;;;;;;5.13;1.97;;;;;;;7.62;88.48;99999.78;5051571;28;20560;-78
2023/01/12 01:10:40;;;;;;;2.23;1.03;;;;;;;7.69;88.71;99997.06;5051238;28;20229;-77
2023/01/12 01:13:06;;;;;;;1.67;1.03;;;;;;;7.77;88.89;99999.56;5051909;28;20205;-77
2023/01/12 01:15:33;;;;;;;4.30;1.30;;;;;;;7.69;88.37;100009.19;5051687;28;20233;-78
2023/01/12 01:17:59;;;;;;;4.93;1.50;;;;;;;7.65;87.70;99992.81;5052228;28;20209;-77
2023/01/12 01:20:28;;;;;;;5.03;1.40;;;;;;;7.71;87.50;100033.41;5039356;28;20207;-78
2023/01/12 01:22:55;;;;;;;2.47;1.00;;;;;;;7.75;86.37;100053.28;5011167;28;20210;-77
2023/01/12 01:25:21;;;;;;;5.47;1.30;;;;;;;7.88;86.36;100066.94;5012273;28;20234;-77
2023/01/12 01:27:48;;;;;;;3.30;1.27;;;;;;;7.89;86.05;100066.09;5012216;28;20215;-78
2023/01/12 01:30:14;;;;;;;2.83;1.10;;;;;;;7.92;85.39;100079.88;5011745;28;20268;-78
2023/01/12 01:32:40;;;;;;;1.90;0.93;;;;;;;7.89;84.31;100120.66;5012146;28;20206;-78
2023/01/12 01:35:07;;;;;;;1.63;0.90;;;;;;;7.93;83.95;100124.94;5011170;28;20248;-76
2023/01/12 01:37:35;;;;;;;2.50;1.03;;;;;;;8.06;84.31;100136.00;5011370;28;20284;-78
2023/01/12 01:40:01;;;;;;;3.70;0.87;;;;;;;8.04;84.51;100137.78;5011810;28;20698;-76
2023/01/12 01:42:28;;;;;;;4.33;0.87;;;;;;;8.16;83.92;100151.44;5011813;28;20211;-77
2023/01/12 01:44:56;;;;;;;3.00;1.00;;;;;;;8.13;84.70;100151.50;5012302;28;20222;-78
2023/01/12 01:47:33;;;;;;;1.47;0.77;;;;;;;8.17;84.44;100144.53;5011461;28;20221;-78
2023/01/12 01:50:01;;;;;;;1.23;0.60;;;;;;;8.12;85.38;100120.31;5035972;28;20627;-78
2023/01/12 01:52:32;;;;;;;1.33;0.70;;;;;;;8.05;86.11;100098.78;5047706;28;20752;-77
2023/01/12 01:55:03;;;;;;;2.70;0.77;;;;;;;8.01;88.24;100067.63;5054129;28;20282;-77
2023/01/12 01:57:33;;;;;;;2.30;0.80;;;;;;;8.04;89.31;100023.41;5055356;28;20684;-78
2023/01/12 02:00:02;;;;;;;1.70;0.70;;;;;;;7.99;89.44;99994.91;5055622;28;20656;-78
2023/01/12 02:02:28;;;;;;;1.97;0.50;;;;;;;8.08;89.18;99981.72;5055419;28;20205;-77
2023/01/12 02:04:56;;;;;;;2.27;0.70;;;;;;;7.98;90.03;99979.31;5055057;28;20255;-77
2023/01/12 02:07:24;;;;;;;1.27;0.90;;;;;;;7.92;90.26;99962.94;5055012;28;20263;-78
2023/01/12 02:09:50;;;;;;;1.83;0.70;;;;;;;7.92;90.80;99951.69;5054837;28;20235;-76
2023/01/12 02:18:00;;;;;;;1.73;0.80;;;;;;;7.68;94.12;99860.25;5054593;28;20634;-77
2023/01/12 02:20:41;;;;;;;1.67;0.90;;;;;;;7.75;94.62;99829.84;5038790;28;20669;-78
2023/01/12 02:23:44;;;;;;;2.57;0.73;;;;;;;7.67;94.82;99800.53;5015688;28;20207;-78
2023/01/12 02:26:43;;;;;;;2.10;0.83;;;;;;;7.66;94.41;99798.84;5015145;28;20597;-78
2023/01/12 02:29:43;;;;;;;2.07;1.00;;;;;;;7.70;94.32;99797.91;5014558;28;20206;-78
2023/01/12 02:32:19;;;;;;;1.37;0.90;;;;;;;7.72;94.56;99794.38;5015000;28;20254;-78
2023/01/12 02:34:53;;;;;;;3.20;0.90;;;;;;;7.71;92.75;99822.97;5014500;28;20214;-77
2023/01/12 02:37:28;;;;;;;3.53;1.30;;;;;;;7.83;92.00;99855.69;5014529;28;20210;-78
2023/01/12 02:40:01;;;;;;;2.30;0.70;;;;;;;7.93;91.65;99858.09;5013956;28;20269;-77
2023/01/12 02:42:40;;;;;;;3.13;0.90;;;;;;;7.98;90.11;99896.16;5014452;28;20207;-78
2023/01/12 02:45:15;;;;;;;1.50;0.60;;;;;;;8.04;89.14;99929.84;5014760;28;20237;-76
2023/01/12 02:47:48;;;;;;;2.73;0.63;;;;;;;8.08;88.42;99955.75;5014622;28;20202;-77
2023/01/12 02:50:23;;;;;;;3.07;0.90;;;;;;;8.11;88.27;99966.09;5040641;28;20225;-77
2023/01/12 02:52:57;;;;;;;0.63;0.60;;;;;;;8.08;88.02;99975.69;5054363;28;20208;-78
2023/01/12 02:55:27;;;;;;;3.03;0.90;;;;;;;8.06;88.12;99983.50;5053793;28;20734;-78
2023/01/12 02:57:56;;;;;;;2.33;0.83;;;;;;;8.10;88.23;99979.13;5054230;28;20258;-78
2023/01/12 03:00:23;;;;;;;1.37;0.63;;;;;;;8.07;87.54;99990.44;5054154;28;20259;-79
2023/01/12 03:02:50;;;;;;;2.37;0.50;;;;;;;8.05;87.90;99989.59;5053628;28;20206;-78
2023/01/12 03:05:17;;;;;;;0.77;0.60;;;;;;;8.12;87.81;99980.78;5053032;28;20287;-78
2023/01/12 03:07:50;;;;;;;1.50;0.40;;;;;;;8.22;87.89;99983.25;5053636;28;20213;-78
2023/01/12 03:10:50;;;;;;;0.97;0.50;;;;;;;8.15;87.86;99988.56;5053644;28;20229;-79
2023/01/12 03:13:18;;;;;;;2.30;0.50;;;;;;;8.08;87.86;99986.06;5051593;28;20209;-78
2023/01/12 03:15:48;;;;;;;2.43;0.87;;;;;;;8.02;87.44;99973.19;5054017;28;20229;-77
2023/01/12 03:18:20;;;;;;;1.23;0.50;;;;;;;8.05;87.99;99967.94;5051780;28;20209;-78
2023/01/12 03:20:51;;;;;;;1.63;0.70;;;;;;;8.06;87.96;99961.84;5044616;28;20198;-77
2023/01/12 03:23:21;;;;;;;2.00;0.47;;;;;;;7.92;88.59;99952.53;5054017;28;20354;-77
2023/01/12 03:25:50;;;;;;;1.53;0.87;;;;;;;8.04;89.27;99906.44;5053553;28;20241;-78
2023/01/12 03:28:19;;;;;;;2.27;0.43;;;;;;;8.06;89.79;99904.66;5053687;28;20210;-78
2023/01/12 03:30:52;;;;;;;2.03;0.50;;;;;;;8.04;89.87;99888.25;5052831;28;20232;-76
2023/01/12 03:33:20;;;;;;;1.17;0.40;;;;;;;7.90;90.35;99871.13;5053817;28;20205;-78
2023/01/12 03:35:56;;;;;;;1.40;0.53;;;;;;;7.96;90.51;99850.25;5053260;28;20259;-78
2023/01/12 03:38:28;;;;;;;1.43;0.47;;;;;;;8.00;90.65;99858.84;5053430;28;20250;-78
2023/01/12 03:41:04;;;;;;;1.43;0.47;;;;;;;7.88;91.34;99836.53;5052798;28;20209;-78
2023/01/12 03:43:36;;;;;;;2.10;0.50;;;;;;;7.93;91.03;99832.13;5054082;28;20608;-78
2023/01/12 03:46:09;;;;;;;1.33;0.70;;;;;;;7.89;90.98;99837.41;5053619;28;20251;-78
2023/01/12 03:48:40;;;;;;;2.00;0.60;;;;;;;7.92;90.93;99840.78;5049414;28;20213;-78
2023/01/12 03:51:14;;;;;;;0.90;0.50;;;;;;;7.94;91.51;99828.63;5044862;28;20243;-78
2023/01/12 03:53:44;;;;;;;1.27;0.50;;;;;;;8.00;91.38;99832.84;5053951;28;20221;-77
2023/01/12 03:56:13;;;;;;;0.60;0.50;;;;;;;7.99;91.55;99828.56;5054210;28;20221;-78
2023/01/12 03:58:40;;;;;;;1.40;0.50;;;;;;;8.07;91.98;99802.44;5053449;28;20745;-78
2023/01/12 04:01:07;;;;;;;2.43;0.50;;;;;;;8.00;92.18;99804.25;5053136;28;20201;-78
2023/01/12 04:03:33;;;;;;;1.00;0.50;;;;;;;7.88;93.92;99786.31;5054070;28;20234;-78
2023/01/12 04:06:01;;;;;;;0.77;0.40;;;;;;;7.93;94.72;99756.75;5053444;28;20233;-77
2023/01/12 04:08:27;;;;;;;0.50;0.50;;;;;;;8.00;94.97;99739.28;5053953;28;20270;-78
2023/01/12 04:10:55;;;;;;;2.50;0.70;;;;;;;7.96;94.99;99727.25;5053650;28;20255;-77
2023/01/12 04:13:21;;;;;;;0.50;0.50;;;;;;;7.95;95.71;99708.22;5054232;28;20668;-78
2023/01/12 04:15:47;;;;;;;1.53;0.63;;;;;;;7.93;96.21;99701.34;5055160;28;20782;-76
2023/01/12 04:18:14;;;;;;;2.70;0.70;;;;;;;7.84;96.63;99691.13;5052549;28;20205;-78
2023/01/12 04:20:41;;;;;;;0.60;0.60;;;;;;;7.80;96.72;99679.06;5044435;28;20198;-78
2023/01/12 04:23:08;;;;;;;2.63;0.90;;;;;;;7.75;97.41;99667.03;5060023;28;20216;-78
2023/01/12 04:25:35;;;;;;;2.67;0.80;;;;;;;7.74;97.28;99651.47;5060009;28;20271;-77
2023/01/12 04:28:02;;;;;;;1.23;0.50;;;;;;;7.68;97.25;99670.63;5060497;28;20205;-78
2023/01/12 04:30:30;;;;;;;2.00;0.70;;;;;;;7.62;98.34;99655.16;5057590;28;20727;-78
2023/01/12 04:32:57;;;;;;;1.83;0.70;;;;;;;7.63;98.37;99656.91;5059396;28;20221;-78
2023/01/12 04:35:24;;;;;;;1.63;0.57;;;;;;;7.66;97.95;99633.44;5059098;28;20299;-78
2023/01/12 04:37:51;;;;;;;1.43;0.53;;;;;;;7.68;97.39;99649.00;5059462;28;20200;-77
2023/01/12 04:40:20;;;;;;;2.47;0.70;;;;;;;7.79;98.27;99628.88;5059656;28;20205;-78
2023/01/12 04:43:06;;;;;;;1.53;0.77;;;;;;;7.83;98.54;99621.84;5053276;28;20219;-78
2023/01/12 04:45:34;;;;;;;1.40;0.60;;;;;;;7.82;98.84;99620.16;5053156;28;20225;-79
2023/01/12 04:48:02;;;;;;;1.43;0.50;;;;;;;7.81;98.64;99608.91;5052613;28;20263;-78
2023/01/12 04:50:29;;;;;;;5.90;0.90;;;;;;;7.86;98.37;99601.00;5040956;28;20703;-79
2023/01/12 04:52:56;;;;;;;1.90;1.17;;;;;;;7.82;98.76;99608.00;5053031;28;20205;-78
2023/01/12 04:55:24;;;;;;;1.20;1.10;;;;;;;7.82;98.41;99618.41;5053172;28;20221;-79
2023/01/12 04:57:50;;;;;;;1.50;0.70;;;;;;;7.76;98.56;99624.56;5052667;28;20255;-79
2023/01/12 05:00:17;;;;;;;1.07;0.60;;;;;;;7.85;98.88;99609.69;5052873;28;20740;-79
2023/01/12 05:02:43;;;;;;;0.67;0.57;;;;;;;7.79;98.87;99599.41;5052854;28;20223;-78
2023/01/12 05:05:10;;;;;;;2.63;0.70;;;;;;;7.84;99.01;99593.25;5052356;28;20249;-79
2023/01/12 05:10:21;;;;;;;1.83;0.60;;;;;;;7.72;99.38;99603.91;5052439;28;20220;-77
2023/01/12 05:10:23;;;;;;;0.57;0.50;;;;;;;7.65;99.82;99578.91;5052425;28;20567;-78
2023/01/12 05:12:49;;;;;;;1.57;0.53;;;;;;;7.63;99.95;99560.81;5053029;28;20206;-78
2023/01/12 05:15:16;;;;;;;1.23;0.60;;;;;;;7.69;100.00;99557.19;5052849;28;20285;-78
2023/01/12 05:17:42;;;;;;;1.37;0.70;;;;;;;7.68;100.00;99526.94;5052941;28;20251;-78
2023/01/12 05:20:10;;;;;;;1.77;0.53;;;;;;;7.69;100.00;99534.69;5043088;28;20206;-78
2023/01/12 05:22:36;;;;;;;1.27;0.57;;;;;;;7.62;100.00;99532.25;5050939;28;20239;-78
2023/01/12 05:25:07;;;;;;;1.13;0.43;;;;;;;7.61;100.00;99520.16;5053960;28;20250;-79
2023/01/12 05:27:35;;;;;;;1.27;0.50;;;;;;;7.64;100.00;99549.50;5052418;28;20204;-79
2023/01/12 05:30:01;;;;;;;0.70;0.63;;;;;;;7.67;100.00;99504.41;5055630;28;20213;-79
2023/01/12 05:32:27;;;;;;;3.07;0.70;;;;;;;7.55;100.00;99513.34;5056333;28;20233;-79
2023/01/12 05:34:53;;;;;;;1.03;0.50;;;;;;;7.61;100.00;99509.75;5057455;28;20274;-80
2023/01/12 05:37:20;;;;;;;1.60;0.47;;;;;;;7.67;100.00;99520.00;5058443;22;20295;-81
2023/01/12 05:39:46;;;;;;;2.13;0.63;;;;;;;7.70;100.00;99527.75;5041866;28;20228;-79
2023/01/12 05:44:58;;;;;;;2.40;0.50;;;;;;;7.66;100.00;99516.56;5041433;28;20285;-81
2023/01/12 05:47:24;;;;;;;0.93;0.50;;;;;;;7.64;100.00;99526.13;5052770;28;20716;-82
2023/01/12 05:49:50;;;;;;;0.77;0.40;;;;;;;7.68;100.00;99511.34;5052010;28;20267;-80
2023/01/12 05:52:17;;;;;;;2.50;0.70;;;;;;;7.75;100.00;99503.38;5050767;28;20225;-80
2023/01/12 05:54:43;;;;;;;0.90;0.50;;;;;;;7.70;100.00;99525.16;5054149;28;20689;-82
2023/01/12 05:57:09;;;;;;;1.43;0.80;;;;;;;7.72;100.00;99529.41;5052861;28;20267;-81
2023/01/12 05:59:36;;;;;;;0.97;0.40;;;;;;;7.81;100.00;99543.97;5042864;28;20731;-81
2023/01/12 06:02:03;;;;;;;0.57;0.40;;;;;;;7.76;100.00;99532.81;5042605;28;20661;-82
2023/01/12 06:04:30;;;;;;;0.90;0.40;;;;;;;7.68;100.00;99512.19;5060997;28;20684;-83
2023/01/12 06:06:56;;;;;;;1.27;0.40;;;;;;;7.74;100.00;99513.78;5064665;28;20241;-79
2023/01/12 06:09:22;;;;;;;0.83;0.30;;;;;;;7.75;100.00;99503.38;5064190;28;20216;-81
2023/01/12 06:14:32;;;;;;;1.20;0.40;;;;;;;7.78;100.00;99509.41;5063469;28;20583;-83
2023/01/12 06:16:59;;;;;;;1.70;0.43;;;;;;;7.71;100.00;99501.75;5062932;28;20248;-82
2023/01/12 06:19:28;;;;;;;1.47;0.50;;;;;;;7.69;100.00;99490.53;5062767;28;20527;-82
2023/01/12 06:21:58;;;;;;;1.13;0.30;;;;;;;7.77;100.00;99459.19;5064192;28;20228;-80
2023/01/12 06:24:24;;;;;;;0.50;0.40;;;;;;;7.68;100.00;99460.25;5063583;28;20692;-80
2023/01/12 06:26:50;;;;;;;0.47;0.40;;;;;;;7.72;100.00;99461.88;5062326;28;20710;-82
2023/01/12 06:29:17;;;;;;;0.53;0.30;;;;;;;7.74;100.00;99454.06;5064528;28;20738;-82
2023/01/12 06:31:43;;;;;;;1.40;0.43;;;;;;;7.68;100.00;99462.00;5056297;28;20279;-81
2023/01/12 06:34:10;;;;;;;1.30;0.63;;;;;;;7.70;100.00;99463.66;5038291;28;20212;-82
2023/01/12 06:36:39;;;;;;;0.47;0.33;;;;;;;7.73;100.00;99467.91;5038059;28;20241;-83
2023/01/12 06:39:05;;;;;;;0.83;0.40;;;;;;;7.75;100.00;99466.16;5037452;28;20214;-82
2023/01/12 06:44:17;;;;;;;0.83;0.60;;;;;;;7.84;99.66;99478.06;5040763;28;20209;-82
2023/01/12 06:46:44;;;;;;;0.60;0.40;;;;;;;7.77;99.59;99492.97;5042670;28;20233;-83
2023/01/12 06:49:10;;;;;;;0.33;0.30;;;;;;;7.81;99.41;99499.78;5039904;28;20259;-81
2023/01/12 06:51:36;;;;;;;0.37;0.27;;;;;;;7.78;99.98;99499.84;5037320;28;20303;-81
2023/01/12 06:54:04;;;;;;;0.70;0.30;;;;;;;7.83;99.63;99490.22;5037905;28;20264;-85
2023/01/12 06:56:30;;;;;;;0.40;0.30;;;;;;;7.82;98.97;99501.50;5038313;28;20230;-84
2023/01/12 06:58:57;;;;;;;1.13;0.30;;;;;;;7.80;99.43;99510.22;5037387;28;20256;-83
2023/01/12 07:01:23;;;;;;;0.30;0.30;;;;;;;7.85;99.23;99496.22;5044653;28;20255;-84
2023/01/12 07:03:50;;;;;;;0.57;0.30;;;;;;;7.83;98.39;99512.72;5049709;28;20681;-84
2023/01/12 07:06:18;;;;;;;0.87;0.50;;;;;;;7.82;97.89;99491.09;5042706;28;20245;-85
2023/01/12 07:08:44;;;;;;;0.47;0.30;;;;;;;7.80;98.91;99477.28;5046020;28;20210;-81
2023/01/12 07:11:13;;;;;;;1.00;0.30;;;;;;;7.83;99.55;99464.25;5036735;28;20637;-82
2023/01/12 07:13:40;;;;;;;0.20;0.20;;;;;;;7.85;98.17;99475.44;5036389;28;20220;-82
2023/01/12 07:16:07;;;;;;;0.20;0.20;;;;;;;7.83;97.89;99479.81;5036161;28;20283;-80
2023/01/12 07:18:33;;;;;;;0.40;0.30;;;;;;;7.86;97.52;99495.31;5035375;28;20593;-80
2023/01/12 07:21:04;;;;;;;0.50;0.20;;;;;;;7.92;96.84;99500.38;5044222;28;20206;-81
2023/01/12 07:23:30;;;;;;;0.67;0.40;;;;;;;7.95;97.13;99497.72;5052804;28;20202;-80
2023/01/12 07:25:56;;;;;;;0.33;0.33;;;;;;;7.95;96.32;99505.53;5056803;28;20225;-80
2023/01/12 07:28:24;;;;;;;1.90;0.47;;;;;;;7.96;95.93;99511.56;5056013;28;20213;-81
2023/01/12 07:30:50;;;;;;;0.53;0.40;;;;;;;8.01;96.92;99506.25;5048889;28;20235;-79
2023/01/12 07:33:17;;;;;;;0.87;0.30;;;;;;;7.99;97.45;99489.84;5046864;28;20278;-79
2023/01/12 07:35:43;;;;;;;0.73;0.33;;;;;;;7.92;97.24;99478.75;5056469;28;20625;-81
2023/01/12 07:38:10;;;;;;;0.90;0.40;;;;;;;7.95;97.25;99469.13;5054653;28;20206;-80
2023/01/12 07:40:37;;;;;;;0.70;0.40;;;;;;;7.96;97.11;99465.63;5047412;28;20679;-81
2023/01/12 07:43:06;;;;;;;1.67;0.43;;;;;;;7.93;96.23;99470.06;5056740;28;20209;-81
2023/01/12 07:45:34;;;;;;;2.13;0.43;;;;;;;7.95;98.13;99439.72;5056454;28;20205;-80
2023/01/12 07:48:00;;;;;;;1.77;0.37;;;;;;;7.81;98.16;99424.44;5056216;28;20208;-80
2023/01/12 07:50:28;;;;;;;1.50;0.50;;;;;;;7.81;99.22;99395.88;5055078;28;20201;-78
2023/01/12 07:52:55;;;;;;;1.23;0.50;;;;;;;7.76;99.33;99382.97;5055805;28;20233;-78
2023/01/12 07:55:21;;;;;;;2.10;0.50;;;;;;;7.79;100.00;99350.03;5054978;28;20258;-81
2023/01/12 07:57:53;;;;;;;1.67;0.50;;;;;;;7.75;100.00;99338.88;5054282;28;20229;-80
2023/01/12 08:00:22;;;;;;;3.23;1.10;;;;;;;7.68;100.00;99327.78;5053204;28;20282;-82
2023/01/12 08:02:50;;;;;;;0.57;0.37;;;;;;;7.69;100.00;99292.25;5046159;28;20212;-83
2023/01/12 08:05:17;;;;;;;2.27;0.53;;;;;;;7.69;100.00;99290.53;5045035;28;20635;-82
2023/01/12 08:07:43;;;;;;;2.53;0.53;;;;;;;7.68;100.00;99282.78;5054100;28;20225;-83
2023/01/12 08:10:11;;;;;;;0.87;0.40;;;;;;;7.62;100.00;99290.72;5052871;28;20615;-80
2023/01/12 08:12:38;;;;;;;1.17;0.50;;;;;;;7.67;100.00;99287.13;5053836;28;20275;-81
2023/01/12 08:15:05;;;;;;;1.70;0.40;;;;;;;7.69;100.00;99271.47;5053468;28;20212;-82
2023/01/12 08:17:37;;;;;;;1.67;0.57;;;;;;;7.70;100.00;99302.63;5053707;28;20225;-81
2023/01/12 08:20:09;;;;;;;1.67;0.50;;;;;;;7.73;100.00;99296.47;5021423;28;20648;-83
2023/01/12 08:22:40;;;;;;;0.50;0.43;;;;;;;7.65;100.00;99288.91;5033635;28;20267;-81
2023/01/12 08:25:10;;;;;;;1.40;0.47;;;;;;;7.66;100.00;99292.34;5033545;28;20213;-82
2023/01/12 08:27:38;;;;;;;1.07;0.40;;;;;;;7.61;100.00;99291.59;5033347;28;20650;-80
2023/01/12 08:30:08;;;;;;;1.47;1.00;;;;;;;7.54;100.00;99264.94;5032200;28;20210;-82
2023/01/12 08:32:36;;;;;;;1.70;0.40;;;;;;;7.58;100.00;99263.97;5036703;28;20268;-80
2023/01/12 08:35:05;;;;;;;1.70;0.60;;;;;;;7.52;100.00;99272.78;5033540;28;20197;-80
2023/01/12 08:37:34;;;;;;;1.87;0.50;;;;;;;7.54;100.00;99252.81;5032917;28;20237;-80
2023/01/12 08:40:01;;;;;;;0.60;0.37;;;;;;;7.55;100.00;99277.91;5032104;28;20202;-79
2023/01/12 08:42:27;;;;;;;1.17;0.40;;;;;;;7.56;100.00;99286.53;5031219;28;20658;-79
2023/01/12 08:44:53;;;;;;;0.77;0.40;;;;;;;7.53;100.00;99299.59;5036047;28;20204;-83
2023/01/12 08:47:21;;;;;;;1.10;0.33;;;;;;;7.62;100.00;99306.31;5032361;28;20764;-79
2023/01/12 08:49:48;;;;;;;1.17;0.30;;;;;;;7.59;100.00;99302.06;5031036;28;20575;-82
2023/01/12 08:52:16;;;;;;;0.40;0.30;;;;;;;7.58;100.00;99271.78;5032838;28;20229;-80
2023/01/12 08:54:42;;;;;;;0.57;0.30;;;;;;;7.56;100.00;99289.97;5033348;28;20202;-82
2023/01/12 08:57:09;;;;;;;0.63;0.30;;;;;;;7.64;100.00;99302.78;5032485;28;20217;-79
2023/01/12 08:59:35;;;;;;;1.23;0.33;;;;;;;7.71;100.00;99322.50;5035659;28;20209;-79
2023/01/12 09:02:01;;;;;;;0.73;0.20;;;;;;;7.75;100.00;99336.28;5034431;28;20213;-79
2023/01/12 09:04:28;;;;;;;1.07;0.40;;;;;;;7.70;100.00;99318.19;5035205;28;20202;-79
2023/01/12 09:06:55;;;;;;;1.10;0.30;;;;;;;7.78;100.00;99324.94;5037090;28;20777;-83
2023/01/12 09:09:22;;;;;;;0.30;0.30;;;;;;;7.79;100.00;99345.69;5037095;28;20263;-79
2023/01/12 09:11:50;;;;;;;0.57;0.57;;;;;;;7.81;99.52;99382.88;5036488;28;20260;-80
2023/01/12 09:14:17;;;;;;;0.63;0.10;;;;;;;7.88;99.68;99383.56;5037319;28;20614;-79
2023/01/12 09:16:43;;;;;;;0.20;0.20;;;;;;;7.94;98.97;99392.06;5036921;28;20958;-81
2023/01/12 09:19:10;;;;;;;0.70;0.27;;;;;;;8.00;99.55;99406.66;5037147;28;20258;-79
2023/01/12 09:21:39;;;;;;;0.30;0.27;;;;;;;7.98;98.81;99407.59;5036740;28;20669;-79
2023/01/12 09:24:06;;;;;;;0.47;0.30;;;;;;;7.97;99.53;99398.94;5036766;28;20253;-79
2023/01/12 09:26:37;;;;;;;0.20;0.20;;;;;;;7.97;97.19;99437.94;5036791;28;20224;-79
2023/01/12 09:29:04;;;;;;;0.43;0.20;;;;;;;8.00;97.66;99439.59;5038181;28;20198;-79
2023/01/12 09:31:32;;;;;;;0.20;0.20;;;;;;;8.02;97.89;99440.41;5040084;28;20202;-80
2023/01/12 09:33:59;;;;;;;0.40;0.30;;;;;;;8.10;97.01;99430.66;5036272;28;20718;-82
2023/01/12 09:36:27;;;;;;;0.30;0.20;;;;;;;8.15;97.25;99441.81;5036720;28;20760;-80
2023/01/12 09:38:54;;;;;;;0.20;0.20;;;;;;;8.12;97.81;99437.53;5035518;28;20727;-80
2023/01/12 09:47:01;;;;;;;0.73;0.27;;;;;;;8.22;95.87;99473.69;5035726;28;20293;-81
2023/01/12 09:49:31;;;;;;;0.70;0.10;;;;;;;8.15;96.05;99479.06;5034201;28;20210;-80
2023/01/12 09:52:05;;;;;;;0.73;0.23;;;;;;;8.22;95.42;99481.50;5037668;28;20236;-80
2023/01/12 09:54:33;;;;;;;0.50;0.20;;;;;;;8.25;95.02;99507.44;5035514;28;20199;-81
2023/01/12 09:57:11;;;;;;;0.10;0.10;;;;;;;8.37;95.88;99498.47;5037520;28;20249;-82
2023/01/12 09:59:51;;;;;;;0.13;0.13;;;;;;;8.32;95.72;99499.44;5045272;28;20213;-79
2023/01/12 10:02:17;;;;;;;0.77;0.20;;;;;;;8.40;96.08;99488.81;5052930;28;20670;-80
2023/01/12 10:04:45;;;;;;;0.13;0.13;;;;;;;8.39;96.39;99476.72;5058055;28;20231;-82
2023/01/12 10:07:14;;;;;;;0.20;0.10;;;;;;;8.29;97.49;99463.09;5058154;28;20224;-80
2023/01/12 10:09:41;;;;;;;0.20;0.20;;;;;;;8.34;96.74;99450.84;5057461;28;20209;-81
2023/01/12 10:12:16;;;;;;;0.20;0.20;;;;;;;8.24;97.65;99464.97;5057427;28;20213;-81
2023/01/12 10:14:56;;;;;;;0.40;0.40;;;;;;;8.21;97.67;99439.06;5057654;28;20205;-79
2023/01/12 10:17:31;;;;;;;0.13;0.13;;;;;;;8.15;99.32;99411.47;5057526;28;20287;-81
2023/01/12 10:20:05;;;;;;;0.30;0.20;;;;;;;8.10;100.00;99376.09;5056357;28;20208;-80
2023/01/12 10:22:39;;;;;;;0.10;0.10;;;;;;;8.04;100.00;99358.91;5057380;28;20755;-80
2023/01/12 10:25:25;;;;;;;0.30;0.20;;;;;;;8.23;100.00;99330.69;5058538;28;20209;-80
2023/01/12 10:27:53;;;;;;;0.13;0.13;;;;;;;8.23;100.00;99328.09;5053944;28;20209;-81
2023/01/12 10:30:27;;;;;;;0.20;0.20;;;;;;;8.30;100.00;99326.16;5047240;28;20259;-81
2023/01/12 10:32:54;;;;;;;0.20;0.20;;;;;;;8.41;100.00;99325.88;5019600;28;20230;-80
2023/01/12 10:35:22;;;;;;;0.20;0.20;;;;;;;8.32;100.00;99346.03;5018843;28;20203;-81
2023/01/12 10:37:51;;;;;;;0.27;0.20;;;;;;;8.37;100.00;99314.72;5017297;28;20744;-81
2023/01/12 10:40:24;;;;;;;0.10;0.10;;;;;;;8.39;100.00;99305.09;5016882;28;20638;-80
2023/01/12 10:43:21;;;;;;;0.10;0.10;;;;;;;8.38;100.00;99313.78;5018053;28;20207;-81
2023/01/12 10:46:03;;;;;;;0.83;0.20;;;;;;;8.38;100.00;99315.53;5018373;28;20240;-81
2023/01/12 10:48:29;;;;;;;0.20;0.20;;;;;;;8.52;100.00;99295.22;5016674;28;20623;-79
2023/01/12 10:50:57;;;;;;;0.13;0.10;;;;;;;8.44;100.00;99303.25;5029511;28;20205;-79
2023/01/12 10:53:31;;;;;;;0.10;0.10;;;;;;;8.48;100.00;99317.91;5045292;28;20229;-81
2023/01/12 10:56:01;;;;;;;0.20;0.20;;;;;;;8.47;100.00;99321.38;5034639;28;20233;-81
2023/01/12 10:58:33;;;;;;;0.27;0.20;;;;;;;8.49;100.00;99323.94;5035873;28;20289;-81
2023/01/12 11:01:01;;;;;;;0.10;0.10;;;;;;;8.49;100.00;99313.53;5035805;28;20232;-80
2023/01/12 11:03:31;;;;;;;0.20;0.20;;;;;;;8.58;100.00;99299.41;5035074;28;20195;-80
2023/01/12 11:06:25;;;;;;;0.30;0.30;;;;;;;8.60;100.00;99305.41;5030927;28;20306;-79
2023/01/12 11:08:51;;;;;;;0.40;0.30;;;;;;;8.70;100.00;99325.06;5032973;28;20206;-80
2023/01/12 11:11:30;;;;;;;0.20;0.20;;;;;;;8.51;100.00;99296.13;5033697;28;20209;-81
2023/01/12 11:13:59;;;;;;;0.20;0.20;;;;;;;8.65;100.00;99306.16;5032992;28;20316;-80
2023/01/12 11:16:32;;;;;;;0.20;0.20;;;;;;;8.68;100.00;99321.66;5032326;28;20218;-81
2023/01/12 11:19:13;;;;;;;2.43;0.20;;;;;;;8.74;100.00;99319.75;5033718;28;20267;-79
2023/01/12 11:21:44;;;;;;;0.10;0.10;;;;;;;8.66;100.00;99324.31;5033316;28;20252;-79
2023/01/12 11:24:15;;;;;;;0.20;0.20;;;;;;;8.67;100.00;99315.59;5047254;28;20200;-81
2023/01/12 11:26:48;;;;;;;0.40;0.10;;;;;;;8.71;100.00;99305.97;5052312;28;20607;-82
2023/01/12 11:29:34;;;;;;;0.33;0.10;;;;;;;8.80;100.00;99299.63;5053413;28;20638;-80
2023/01/12 11:32:06;;;;;;;0.50;0.13;;;;;;;8.91;100.00;99302.75;5042752;28;20214;-79
2023/01/12 11:34:37;;;;;;;0.57;0.53;;;;;;;8.89;100.00;99313.22;5050261;28;20241;-81
2023/01/12 11:37:10;;;;;;;0.10;0.10;;;;;;;8.85;100.00;99310.75;5053170;28;20229;-81
2023/01/12 11:39:39;;;;;;;0.20;0.20;;;;;;;8.95;100.00;99310.41;5048621;28;20323;-81
2023/01/12 11:45:05;;;;;;;0.30;0.20;;;;;;;8.94;100.00;99307.88;5036442;22;20253;-76
2023/01/12 11:47:39;;;;;;;1.67;0.23;;;;;;;8.94;100.00;99303.53;5023310;28;20296;-76
2023/01/12 11:50:13;;;;;;;0.20;0.20;;;;;;;8.89;100.00;99302.78;5023820;28;20668;-76
2023/01/12 11:52:40;;;;;;;0.50;0.20;;;;;;;8.94;100.00;99310.47;5006020;28;20248;-76
2023/01/12 11:55:13;;;;;;;0.47;0.30;;;;;;;9.06;100.00;99298.84;5003538;28;20238;-76
2023/01/12 11:57:52;;;;;;;0.20;0.20;;;;;;;8.95;100.00;99307.81;5001896;28;20231;-75
2023/01/12 12:00:37;;;;;;;1.27;0.20;;;;;;;9.08;100.00;99297.88;5000521;28;20194;-75
2023/01/12 12:03:27;;;;;;;0.20;0.20;;;;;;;9.09;100.00;99298.72;4998695;28;20257;-75
2023/01/12 12:06:01;;;;;;;1.20;0.43;;;;;;;9.14;100.00;99300.28;5005161;28;20210;-75
2023/01/12 12:08:44;;;;;;;0.20;0.20;;;;;;;9.11;100.00;99305.59;5004291;28;20225;-75
2023/01/12 12:11:18;;;;;;;0.20;0.20;;;;;;;9.11;100.00;99302.13;4997703;28;20211;-75
2023/01/12 12:13:55;;;;;;;0.20;0.20;;;;;;;9.21;100.00;99289.69;4992826;28;20215;-75
2023/01/12 12:16:30;;;;;;;0.50;0.23;;;;;;;9.23;100.00;99290.50;4992898;28;20196;-75